0728 UTC 23 August 2014 found at http://aviationweather.gov/adds/metars/
 
METAR text: KAFF 230723Z AUTO 03005KT 10SM FEW016 SCT022 12/11 A3010 RMK AO2
Conditions at: KAFF (USAF ACADEMY/COS, CO, US) observed 0723 UTC 23 August 2014
Temperature: 12.0°C (54°F)
Dewpoint: 11.0°C (52°F) [RH = 94%]
Pressure (altimeter): 30.10 inches Hg (1019.4 mb)
Winds: from the NNE (30 degrees) at 6 MPH (5 knots; 2.6 m/s)
Visibility: 10 or more miles (16+ km)
Ceiling: at least 12,000 feet AGL
Clouds: few clouds at 1600 feet AGL
scattered clouds at 2200 feet AGL
Weather: automated observation with no human augmentation;
there may or may not be significant weather present at this time

METAR text: KAFF 230703Z AUTO 34005KT 10SM BKN019 12/11 A3011 RMK AO2
Conditions at: KAFF (USAF ACADEMY/COS, CO, US) observed 0703 UTC 23 August 2014
Temperature: 12.0°C (54°F)
Dewpoint: 11.0°C (52°F) [RH = 94%]
Pressure (altimeter): 30.11 inches Hg (1019.7 mb)
Winds: from the NNW (340 degrees) at 6 MPH (5 knots; 2.6 m/s)
Visibility: 10 or more miles (16+ km)
Ceiling: 1900 feet AGL
Clouds: broken clouds at 1900 feet AGL
Weather: automated observation with no human augmentation;
there may or may not be significant weather present at this time

METAR text: KAFF 230658Z AUTO 36005KT 10SM BKN020 12/11 A3011 RMK AO2 BKN V SCT SLP120 T01200109 402170120
Conditions at: KAFF (USAF ACADEMY/COS, CO, US) observed 0658 UTC 23 August 2014
Temperature: 12.0°C (54°F)
Dewpoint: 10.9°C (52°F) [RH = 93%]
Pressure (altimeter): 30.11 inches Hg (1019.7 mb[Sea-level pressure: 1012.0 mb]
Winds: from the N (360 degrees) at 6 MPH (5 knots; 2.6 m/s)
Visibility: 10 or more miles (16+ km)
Ceiling: 2000 feet AGL
Clouds: broken clouds at 2000 feet AGL
Weather: automated observation with no human augmentation;
there may or may not be significant weather present at this time

METAR text: KAFF 230653Z AUTO 36004KT 10SM FEW013 BKN020 12/11 A3011 RMK AO2 BKN V SCT
Conditions at: KAFF (USAF ACADEMY/COS, CO, US) observed 0653 UTC 23 August 2014
Temperature: 12.0°C (54°F)
Dewpoint: 11.0°C (52°F) [RH = 94%]
Pressure (altimeter): 30.11 inches Hg (1019.7 mb)
Winds: from the N (360 degrees) at 5 MPH (4 knots; 2.1 m/s)
Visibility: 10 or more miles (16+ km)
Ceiling: 2000 feet AGL
Clouds: few clouds at 1300 feet AGL
broken clouds at 2000 feet AGL
Weather: automated observation with no human augmentation;
there may or may not be significant weather present at this time

METAR text: KAFF 230643Z AUTO 01005KT 10SM SCT022 13/11 A3011 RMK AO2
Conditions at: KAFF (USAF ACADEMY/COS, CO, US) observed 0643 UTC 23 August 2014
Temperature: 13.0°C (55°F)
Dewpoint: 11.0°C (52°F) [RH = 88%]
Pressure (altimeter): 30.11 inches Hg (1019.7 mb)
Winds: from the N (10 degrees) at 6 MPH (5 knots; 2.6 m/s)
Visibility: 10 or more miles (16+ km)
Ceiling: at least 12,000 feet AGL
Clouds: scattered clouds at 2200 feet AGL
Weather: automated observation with no human augmentation;
there may or may not be significant weather present at this time

METAR text: KAFF 230628Z AUTO 33002KT 10SM BKN023 13/11 A3011 RMK AO2 BKN V SCT
Conditions at: KAFF (USAF ACADEMY/COS, CO, US) observed 0628 UTC 23 August 2014
Temperature: 13.0°C (55°F)
Dewpoint: 11.0°C (52°F) [RH = 88%]
Pressure (altimeter): 30.11 inches Hg (1019.7 mb)
Winds: from the NNW (330 degrees) at 2 MPH (2 knots; 1.0 m/s)
Visibility: 10 or more miles (16+ km)
Ceiling: 2300 feet AGL
Clouds: broken clouds at 2300 feet AGL
Weather: automated observation with no human augmentation;
there may or may not be significant weather present at this time

METAR text: KAFF 230623Z AUTO 31004KT 10SM SCT024 13/11 A3011 RMK AO2
Conditions at: KAFF (USAF ACADEMY/COS, CO, US) observed 0623 UTC 23 August 2014
Temperature: 13.0°C (55°F)
Dewpoint: 11.0°C (52°F) [RH = 88%]
Pressure (altimeter): 30.11 inches Hg (1019.7 mb)
Winds: from the NW (310 degrees) at 5 MPH (4 knots; 2.1 m/s)
Visibility: 10 or more miles (16+ km)
Ceiling: at least 12,000 feet AGL
Clouds: scattered clouds at 2400 feet AGL
Weather: automated observation with no human augmentation;
there may or may not be significant weather present at this time

METAR text: KAFF 230558Z AUTO 01005KT 10SM BKN024 13/12 A3012 RMK AO2 BKN V FEW SLP123 T01280118 10204 20122 55003
Conditions at: KAFF (USAF ACADEMY/COS, CO, US) observed 0558 UTC 23 August 2014
Temperature: 12.8°C (55°F)
Dewpoint: 11.8°C (53°F) [RH = 94%]
Pressure (altimeter): 30.12 inches Hg (1020.1 mb[Sea-level pressure: 1012.3 mb]
Winds: from the N (10 degrees) at 6 MPH (5 knots; 2.6 m/s)
Visibility: 10 or more miles (16+ km)
Ceiling: 2400 feet AGL
Clouds: broken clouds at 2400 feet AGL
Weather: automated observation with no human augmentation;
there may or may not be significant weather present at this time

METAR text: KAFF 230458Z AUTO 02006KT 10SM FEW110 14/12 A3011 RMK AO2 SLP120 T01420119
Conditions at: KAFF (USAF ACADEMY/COS, CO, US) observed 0458 UTC 23 August 2014
Temperature: 14.2°C (58°F)
Dewpoint: 11.9°C (53°F) [RH = 86%]
Pressure (altimeter): 30.11 inches Hg (1019.7 mb[Sea-level pressure: 1012.0 mb]
Winds: from the NNE (20 degrees) at 7 MPH (6 knots; 3.1 m/s)
Visibility: 10 or more miles (16+ km)
Ceiling: at least 12,000 feet AGL
Clouds: few clouds at 11000 feet AGL
Weather: automated observation with no human augmentation;
there may or may not be significant weather present at this time

METAR text: KAFF 230358Z AUTO 04006KT 10SM FEW050 15/13 A3013 RMK AO2 SLP127 T01510126
Conditions at: KAFF (USAF ACADEMY/COS, CO, US) observed 0358 UTC 23 August 2014
Temperature: 15.1°C (59°F)
Dewpoint: 12.6°C (55°F) [RH = 85%]
Pressure (altimeter): 30.13 inches Hg (1020.4 mb[Sea-level pressure: 1012.7 mb]
Winds: from the NE (40 degrees) at 7 MPH (6 knots; 3.1 m/s)
Visibility: 10 or more miles (16+ km)
Ceiling: at least 12,000 feet AGL
Clouds: few clouds at 5000 feet AGL
Weather: automated observation with no human augmentation;
there may or may not be significant weather present at this time

METAR text: KAFF 230258Z AUTO 35006KT 10SM FEW046 SCT100 17/12 A3013 RMK AO2 SLP127 T01710123 53002
Conditions at: KAFF (USAF ACADEMY/COS, CO, US) observed 0258 UTC 23 August 2014
Temperature: 17.1°C (63°F)
Dewpoint: 12.3°C (54°F) [RH = 73%]
Pressure (altimeter): 30.13 inches Hg (1020.4 mb[Sea-level pressure: 1012.7 mb]
Winds: from the N (350 degrees) at 7 MPH (6 knots; 3.1 m/s)
Visibility: 10 or more miles (16+ km)
Ceiling: at least 12,000 feet AGL
Clouds: few clouds at 4600 feet AGL
scattered clouds at 10000 feet AGL
Weather: automated observation with no human augmentation;
there may or may not be significant weather present at this time

METAR text: KAFF 230158Z AUTO 02011KT 10SM BKN095 18/11 A3009 RMK AO2 SLP113 T01820111
Conditions at: KAFF (USAF ACADEMY/COS, CO, US) observed 0158 UTC 23 August 2014
Temperature: 18.2°C (65°F)
Dewpoint: 11.1°C (52°F) [RH = 63%]
Pressure (altimeter): 30.09 inches Hg (1019.0 mb[Sea-level pressure: 1011.3 mb]
Winds: from the NNE (20 degrees) at 13 MPH (11 knots; 5.7 m/s)
Visibility: 10 or more miles (16+ km)
Ceiling: 9500 feet AGL
Clouds: broken clouds at 9500 feet AGL
Weather: automated observation with no human augmentation;
there may or may not be significant weather present at this time

METAR text: KAFF 230058Z AUTO 06007KT 10SM FEW090 20/09 A3007 RMK AO2 SLP106 T01950094
Conditions at: KAFF (USAF ACADEMY/COS, CO, US) observed 0058 UTC 23 August 2014
Temperature: 19.5°C (67°F)
Dewpoint: 9.4°C (49°F) [RH = 52%]
Pressure (altimeter): 30.07 inches Hg (1018.4 mb[Sea-level pressure: 1010.6 mb]
Winds: from the ENE (60 degrees) at 8 MPH (7 knots; 3.6 m/s)
Visibility: 10 or more miles (16+ km)
Ceiling: at least 12,000 feet AGL
Clouds: few clouds at 9000 feet AGL
Weather: automated observation with no human augmentation;
there may or may not be significant weather present at this time

METAR text: KAFF 222358Z AUTO VRB03KT 10SM FEW170 20/11 A3012 RMK AO2 SLP123 60003 T02040106 10217 20179 57015
Conditions at: KAFF (USAF ACADEMY/COS, CO, US) observed 2358 UTC 22 August 2014
Temperature: 20.4°C (69°F)
Dewpoint: 10.6°C (51°F) [RH = 53%]
Pressure (altimeter): 30.12 inches Hg (1020.1 mb[Sea-level pressure: 1012.3 mb]
Winds: variable direction winds at 3 MPH (3 knots; 1.6 m/s)
Visibility: 10 or more miles (16+ km)
Ceiling: at least 12,000 feet AGL
Clouds: few clouds at 17000 feet AGL
Weather: automated observation with no human augmentation;
there may or may not be significant weather present at this time

METAR text: KAFF 222258Z 26002KT 10SM SCT160 20/11 A3014 RMK AO2A SLP130 P0001 T02010111
Conditions at: KAFF (USAF ACADEMY/COS, CO, US) observed 2258 UTC 22 August 2014
Temperature: 20.1°C (68°F)
Dewpoint: 11.1°C (52°F) [RH = 56%]
Pressure (altimeter): 30.14 inches Hg (1020.7 mb[Sea-level pressure: 1013.0 mb]
Winds: from the W (260 degrees) at 2 MPH (2 knots; 1.0 m/s)
Visibility: 10 or more miles (16+ km)
Ceiling: at least 12,000 feet AGL
Clouds: scattered clouds at 16000 feet AGL
Weather: no significant weather observed at this time

METAR text: KAFF 222216Z COR AUTO 18007KT 10SM CLR 20/11 A3016 RMK AO2 COR 2222
Conditions at: KAFF (USAF ACADEMY/COS, CO, US) observed 2216 UTC 22 August 2014
Temperature: 20.0°C (68°F)
Dewpoint: 11.0°C (52°F) [RH = 56%]
Pressure (altimeter): 30.16 inches Hg (1021.4 mb)
Winds: from the S (180 degrees) at 8 MPH (7 knots; 3.6 m/s)
Visibility: 10 or more miles (16+ km)
Ceiling: at least 12,000 feet AGL
Clouds: sky clear below 12,000 feet AGL
Weather: automated observation with no human augmentation;
there may or may not be significant weather present at this time

METAR text: KAFF 222215Z 18007KT 10SM -RA FEW095 20/11 A3016 RMK AO2A
Conditions at: KAFF (USAF ACADEMY/COS, CO, US) observed 2215 UTC 22 August 2014
Temperature: 20.0°C (68°F)
Dewpoint: 11.0°C (52°F) [RH = 56%]
Pressure (altimeter): 30.16 inches Hg (1021.4 mb)
Winds: from the S (180 degrees) at 8 MPH (7 knots; 3.6 m/s)
Visibility: 10 or more miles (16+ km)
Ceiling: at least 12,000 feet AGL
Clouds: few clouds at 9500 feet AGL
Weather: -RA  (light rain)

METAR text: KAFF 222158Z 17006KT 10SM FEW170 20/11 A3016 RMK AO2A SLP137 T02030113
Conditions at: KAFF (USAF ACADEMY/COS, CO, US) observed 2158 UTC 22 August 2014
Temperature: 20.3°C (69°F)
Dewpoint: 11.3°C (52°F) [RH = 56%]
Pressure (altimeter): 30.16 inches Hg (1021.4 mb[Sea-level pressure: 1013.7 mb]
Winds: from the S (170 degrees) at 7 MPH (6 knots; 3.1 m/s)
Visibility: 10 or more miles (16+ km)
Ceiling: at least 12,000 feet AGL
Clouds: few clouds at 17000 feet AGL
Weather: no significant weather observed at this time

METAR text: KAFF 222058Z 16005KT 10SM FEW025 FEW160 SCT200 20/13 A3017 RMK AO2A SLP136 P0002 60002 T01980129 55014
Conditions at: KAFF (USAF ACADEMY/COS, CO, US) observed 2058 UTC 22 August 2014
Temperature: 19.8°C (68°F)
Dewpoint: 12.9°C (55°F) [RH = 64%]
Pressure (altimeter): 30.17 inches Hg (1021.8 mb[Sea-level pressure: 1013.6 mb]
Winds: from the SSE (160 degrees) at 6 MPH (5 knots; 2.6 m/s)
Visibility: 10 or more miles (16+ km)
Ceiling: at least 12,000 feet AGL
Clouds: few clouds at 2500 feet AGL
few clouds at 16000 feet AGL
scattered clouds at 20000 feet AGL
Weather: no significant weather observed at this time

METAR text: KAFF 222024Z 19005KT 10SM SCT019 SCT100 BKN160 18/14 A3020 RMK AO2A RAE2018DZB2018E2024
Conditions at: KAFF (USAF ACADEMY/COS, CO, US) observed 2024 UTC 22 August 2014
Temperature: 18.0°C (64°F)
Dewpoint: 14.0°C (57°F) [RH = 77%]
Pressure (altimeter): 30.20 inches Hg (1022.8 mb)
Winds: from the S (190 degrees) at 6 MPH (5 knots; 2.6 m/s)
Visibility: 10 or more miles (16+ km)
Ceiling: 16000 feet AGL
Clouds: scattered clouds at 1900 feet AGL
scattered clouds at 10000 feet AGL
broken clouds at 16000 feet AGL
Weather: no significant weather observed at this time

METAR text: KAFF 222021Z AUTO 21005KT 10SM -DZ SCT022 BKN210 18/14 A3021 RMK AO2 RAE2018DZB2018
Conditions at: KAFF (USAF ACADEMY/COS, CO, US) observed 2021 UTC 22 August 2014
Temperature: 18.0°C (64°F)
Dewpoint: 14.0°C (57°F) [RH = 77%]
Pressure (altimeter): 30.21 inches Hg (1023.1 mb)
Winds: from the SSW (210 degrees) at 6 MPH (5 knots; 2.6 m/s)
Visibility: 10 or more miles (16+ km)
Ceiling: 21000 feet AGL
Clouds: scattered clouds at 2200 feet AGL
broken clouds at 21000 feet AGL
Weather: -DZ  (light drizzle)

METAR text: KAFF 222015Z COR 20007KT 10SM -RA SCT022 BKN210 18/14 A3021 RMK AO2A COR 2017
Conditions at: KAFF (USAF ACADEMY/COS, CO, US) observed 2015 UTC 22 August 2014
Temperature: 18.0°C (64°F)
Dewpoint: 14.0°C (57°F) [RH = 77%]
Pressure (altimeter): 30.21 inches Hg (1023.1 mb)
Winds: from the SSW (200 degrees) at 8 MPH (7 knots; 3.6 m/s)
Visibility: 10 or more miles (16+ km)
Ceiling: 21000 feet AGL
Clouds: scattered clouds at 2200 feet AGL
broken clouds at 21000 feet AGL
Weather: -RA  (light rain)

METAR text: KAFF 222013Z AUTO 19006KT 9SM -RA BKN022 18/14 A3021 RMK AO2
Conditions at: KAFF (USAF ACADEMY/COS, CO, US) observed 2013 UTC 22 August 2014
Temperature: 18.0°C (64°F)
Dewpoint: 14.0°C (57°F) [RH = 77%]
Pressure (altimeter): 30.21 inches Hg (1023.1 mb)
Winds: from the S (190 degrees) at 7 MPH (6 knots; 3.1 m/s)
Visibility: 9 miles (14 km)
Ceiling: 2200 feet AGL
Clouds: broken clouds at 2200 feet AGL
Weather: -RA  (light rain)

METAR text: KAFF 222003Z AUTO 19006KT 7SM -RA FEW002 BKN026 18/14 A3021 RMK AO2 LTG DSNT N-NE CIG 026V060
Conditions at: KAFF (USAF ACADEMY/COS, CO, US) observed 2003 UTC 22 August 2014
Temperature: 18.0°C (64°F)
Dewpoint: 14.0°C (57°F) [RH = 77%]
Pressure (altimeter): 30.21 inches Hg (1023.1 mb)
Winds: from the S (190 degrees) at 7 MPH (6 knots; 3.1 m/s)
Visibility: 7 miles (11 km)
Ceiling: 2600 feet AGL
Clouds: few clouds at 200 feet AGL
broken clouds at 2600 feet AGL
Weather: -RA  (light rain)

METAR text: KAFF 221958Z AUTO 18006KT 9SM -RA SCT030 19/14 A3022 RMK AO2 LTG DSNT N-NE DZB1907E1919B1943E1950 SLP148 P0000 T01870137
Conditions at: KAFF (USAF ACADEMY/COS, CO, US) observed 1958 UTC 22 August 2014
Temperature: 18.7°C (66°F)
Dewpoint: 13.7°C (57°F) [RH = 73%]
Pressure (altimeter): 30.22 inches Hg (1023.5 mb[Sea-level pressure: 1014.8 mb]
Winds: from the S (180 degrees) at 7 MPH (6 knots; 3.1 m/s)
Visibility: 9 miles (14 km)
Ceiling: at least 12,000 feet AGL
Clouds: scattered clouds at 3000 feet AGL
Weather: -RA  (light rain)

METAR text: KAFF 221911Z AUTO 19009KT 10SM -RA FEW130 SCT210 20/12 A3021 RMK AO2 LTG DSNT N-NE DZB1907E1909
Conditions at: KAFF (USAF ACADEMY/COS, CO, US) observed 1911 UTC 22 August 2014
Temperature: 20.0°C (68°F)
Dewpoint: 12.0°C (54°F) [RH = 60%]
Pressure (altimeter): 30.21 inches Hg (1023.1 mb)
Winds: from the S (190 degrees) at 10 MPH (9 knots; 4.7 m/s)
Visibility: 10 or more miles (16+ km)
Ceiling: at least 12,000 feet AGL
Clouds: few clouds at 13000 feet AGL
scattered clouds at 21000 feet AGL
Weather: -RA  (light rain)

METAR text: KAFF 221909Z AUTO 20007KT 10SM FEW130 SCT210 20/12 A3021 RMK AO2 LTG DSNT N-NE RAE1907DZB1907E1909
Conditions at: KAFF (USAF ACADEMY/COS, CO, US) observed 1909 UTC 22 August 2014
Temperature: 20.0°C (68°F)
Dewpoint: 12.0°C (54°F) [RH = 60%]
Pressure (altimeter): 30.21 inches Hg (1023.1 mb)
Winds: from the SSW (200 degrees) at 8 MPH (7 knots; 3.6 m/s)
Visibility: 10 or more miles (16+ km)
Ceiling: at least 12,000 feet AGL
Clouds: few clouds at 13000 feet AGL
scattered clouds at 21000 feet AGL
Weather: automated observation with no human augmentation;
there may or may not be significant weather present at this time

METAR text: KAFF 221858Z AUTO 21005KT 10SM -RA FEW055 SCT210 21/12 A3021 RMK AO2 RAB1850DZB1848E1850 SLP145 P0000 T02100122
Conditions at: KAFF (USAF ACADEMY/COS, CO, US) observed 1858 UTC 22 August 2014
Temperature: 21.0°C (70°F)
Dewpoint: 12.2°C (54°F) [RH = 57%]
Pressure (altimeter): 30.21 inches Hg (1023.1 mb[Sea-level pressure: 1014.5 mb]
Winds: from the SSW (210 degrees) at 6 MPH (5 knots; 2.6 m/s)
Visibility: 10 or more miles (16+ km)
Ceiling: at least 12,000 feet AGL
Clouds: few clouds at 5500 feet AGL
scattered clouds at 21000 feet AGL
Weather: -RA  (light rain)

METAR text: KAFF 221848Z AUTO 20007KT 10SM -DZ FEW055 SCT210 21/11 A3021 RMK AO2 DZB1848
Conditions at: KAFF (USAF ACADEMY/COS, CO, US) observed 1848 UTC 22 August 2014
Temperature: 21.0°C (70°F)
Dewpoint: 11.0°C (52°F) [RH = 53%]
Pressure (altimeter): 30.21 inches Hg (1023.1 mb)
Winds: from the SSW (200 degrees) at 8 MPH (7 knots; 3.6 m/s)
Visibility: 10 or more miles (16+ km)
Ceiling: at least 12,000 feet AGL
Clouds: few clouds at 5500 feet AGL
scattered clouds at 21000 feet AGL
Weather: -DZ  (light drizzle)

METAR text: KAFF 221758Z AUTO 18003KT 10SM FEW130 SCT190 21/11 A3022 RMK AO2 SLP148 T02070105 10212 20132 58003
Conditions at: KAFF (USAF ACADEMY/COS, CO, US) observed 1758 UTC 22 August 2014
Temperature: 20.7°C (69°F)
Dewpoint: 10.5°C (51°F) [RH = 52%]
Pressure (altimeter): 30.22 inches Hg (1023.5 mb[Sea-level pressure: 1014.8 mb]
Winds: from the S (180 degrees) at 3 MPH (3 knots; 1.6 m/s)
Visibility: 10 or more miles (16+ km)
Ceiling: at least 12,000 feet AGL
Clouds: few clouds at 13000 feet AGL
scattered clouds at 19000 feet AGL
Weather: automated observation with no human augmentation;
there may or may not be significant weather present at this time

METAR text: KAFF 221658Z AUTO 36005KT 10SM FEW130 SCT160 SCT190 20/11 A3024 RMK AO2 SLP155 T01990110
Conditions at: KAFF (USAF ACADEMY/COS, CO, US) observed 1658 UTC 22 August 2014
Temperature: 19.9°C (68°F)
Dewpoint: 11.0°C (52°F) [RH = 56%]
Pressure (altimeter): 30.24 inches Hg (1024.1 mb[Sea-level pressure: 1015.5 mb]
Winds: from the N (360 degrees) at 6 MPH (5 knots; 2.6 m/s)
Visibility: 10 or more miles (16+ km)
Ceiling: at least 12,000 feet AGL
Clouds: few clouds at 13000 feet AGL
scattered clouds at 16000 feet AGL
scattered clouds at 19000 feet AGL
Weather: automated observation with no human augmentation;
there may or may not be significant weather present at this time

METAR text: KAFF 221558Z AUTO 01006KT 10SM FEW150 SCT180 19/11 A3025 RMK AO2 SLP159 T01870105
Conditions at: KAFF (USAF ACADEMY/COS, CO, US) observed 1558 UTC 22 August 2014
Temperature: 18.7°C (66°F)
Dewpoint: 10.5°C (51°F) [RH = 59%]
Pressure (altimeter): 30.25 inches Hg (1024.5 mb[Sea-level pressure: 1015.9 mb]
Winds: from the N (10 degrees) at 7 MPH (6 knots; 3.1 m/s)
Visibility: 10 or more miles (16+ km)
Ceiling: at least 12,000 feet AGL
Clouds: few clouds at 15000 feet AGL
scattered clouds at 18000 feet AGL
Weather: automated observation with no human augmentation;
there may or may not be significant weather present at this time

METAR text: KAFF 221458Z AUTO 34006KT 10SM CLR 17/10 A3024 RMK AO2 SLP160 T01730103 50004
Conditions at: KAFF (USAF ACADEMY/COS, CO, US) observed 1458 UTC 22 August 2014
Temperature: 17.3°C (63°F)
Dewpoint: 10.3°C (51°F) [RH = 63%]
Pressure (altimeter): 30.24 inches Hg (1024.1 mb[Sea-level pressure: 1016.0 mb]
Winds: from the NNW (340 degrees) at 7 MPH (6 knots; 3.1 m/s)
Visibility: 10 or more miles (16+ km)
Ceiling: at least 12,000 feet AGL
Clouds: sky clear below 12,000 feet AGL
Weather: automated observation with no human augmentation;
there may or may not be significant weather present at this time

METAR text: KAFF 221358Z AUTO 36007KT 10SM CLR 15/10 A3024 RMK AO2 SLP155 T01540099
Conditions at: KAFF (USAF ACADEMY/COS, CO, US) observed 1358 UTC 22 August 2014
Temperature: 15.4°C (60°F)
Dewpoint: 9.9°C (50°F) [RH = 70%]
Pressure (altimeter): 30.24 inches Hg (1024.1 mb[Sea-level pressure: 1015.5 mb]
Winds: from the N (360 degrees) at 8 MPH (7 knots; 3.6 m/s)
Visibility: 10 or more miles (16+ km)
Ceiling: at least 12,000 feet AGL
Clouds: sky clear below 12,000 feet AGL
Weather: automated observation with no human augmentation;
there may or may not be significant weather present at this time

METAR text: KAFF 221258Z AUTO 35007KT 10SM CLR 14/10 A3024 RMK AO2 SLP155 T01440095
Conditions at: KAFF (USAF ACADEMY/COS, CO, US) observed 1258 UTC 22 August 2014
Temperature: 14.4°C (58°F)
Dewpoint: 9.5°C (49°F) [RH = 72%]
Pressure (altimeter): 30.24 inches Hg (1024.1 mb[Sea-level pressure: 1015.5 mb]
Winds: from the N (350 degrees) at 8 MPH (7 knots; 3.6 m/s)
Visibility: 10 or more miles (16+ km)
Ceiling: at least 12,000 feet AGL
Clouds: sky clear below 12,000 feet AGL
Weather: automated observation with no human augmentation;
there may or may not be significant weather present at this time

METAR text: KAFF 221158Z AUTO 34007KT 10SM CLR 13/10 A3022 RMK AO2 SLP148 60000 T01320096 10176 20130 53002
Conditions at: KAFF (USAF ACADEMY/COS, CO, US) observed 1158 UTC 22 August 2014
Temperature: 13.2°C (56°F)
Dewpoint: 9.6°C (49°F) [RH = 79%]
Pressure (altimeter): 30.22 inches Hg (1023.5 mb[Sea-level pressure: 1014.8 mb]
Winds: from the NNW (340 degrees) at 8 MPH (7 knots; 3.6 m/s)
Visibility: 10 or more miles (16+ km)
Ceiling: at least 12,000 feet AGL
Clouds: sky clear below 12,000 feet AGL
Weather: automated observation with no human augmentation;
there may or may not be significant weather present at this time

METAR text: KAFF 221058Z AUTO 34007KT 10SM FEW110 14/10 A3022 RMK AO2 SLP140 T01380095
Conditions at: KAFF (USAF ACADEMY/COS, CO, US) observed 1058 UTC 22 August 2014
Temperature: 13.8°C (57°F)
Dewpoint: 9.5°C (49°F) [RH = 75%]
Pressure (altimeter): 30.22 inches Hg (1023.5 mb[Sea-level pressure: 1014.0 mb]
Winds: from the NNW (340 degrees) at 8 MPH (7 knots; 3.6 m/s)
Visibility: 10 or more miles (16+ km)
Ceiling: at least 12,000 feet AGL
Clouds: few clouds at 11000 feet AGL
Weather: automated observation with no human augmentation;
there may or may not be significant weather present at this time

METAR text: KAFF 220958Z AUTO 36008KT 10SM CLR 14/10 A3020 RMK AO2 SLP133 T01440095
Conditions at: KAFF (USAF ACADEMY/COS, CO, US) observed 0958 UTC 22 August 2014
Temperature: 14.4°C (58°F)
Dewpoint: 9.5°C (49°F) [RH = 72%]
Pressure (altimeter): 30.20 inches Hg (1022.8 mb[Sea-level pressure: 1013.3 mb]
Winds: from the N (360 degrees) at 9 MPH (8 knots; 4.2 m/s)
Visibility: 10 or more miles (16+ km)
Ceiling: at least 12,000 feet AGL
Clouds: sky clear below 12,000 feet AGL
Weather: automated observation with no human augmentation;
there may or may not be significant weather present at this time

METAR text: KAFF 220858Z AUTO 33011KT 10SM SCT060 16/09 A3021 RMK AO2 SLP133 60000 T01580093 55003
Conditions at: KAFF (USAF ACADEMY/COS, CO, US) observed 0858 UTC 22 August 2014
Temperature: 15.8°C (60°F)
Dewpoint: 9.3°C (49°F) [RH = 65%]
Pressure (altimeter): 30.21 inches Hg (1023.1 mb[Sea-level pressure: 1013.3 mb]
Winds: from the NNW (330 degrees) at 13 MPH (11 knots; 5.7 m/s)
Visibility: 10 or more miles (16+ km)
Ceiling: at least 12,000 feet AGL
Clouds: scattered clouds at 6000 feet AGL
Weather: automated observation with no human augmentation;
there may or may not be significant weather present at this time

METAR text: KAFF 220758Z AUTO 34012G18KT 10SM SCT070 18/08 A3021 RMK AO2 RAB0736E0745 SLP133 P0000 T01760081
Conditions at: KAFF (USAF ACADEMY/COS, CO, US) observed 0758 UTC 22 August 2014
Temperature: 17.6°C (64°F)
Dewpoint: 8.1°C (47°F) [RH = 54%]
Pressure (altimeter): 30.21 inches Hg (1023.1 mb[Sea-level pressure: 1013.3 mb]
Winds: from the NNW (340 degrees) at 14 MPH (12 knots; 6.2 m/sgusting to 21 MPH (18 knots; 9.4 m/s)
Visibility: 10 or more miles (16+ km)
Ceiling: at least 12,000 feet AGL
Clouds: scattered clouds at 7000 feet AGL
Weather: automated observation with no human augmentation;
there may or may not be significant weather present at this time

METAR text: KAFF 220745Z AUTO 35009KT 10SM SCT070 17/09 A3021 RMK AO2 RAB0736E0745
Conditions at: KAFF (USAF ACADEMY/COS, CO, US) observed 0745 UTC 22 August 2014
Temperature: 17.0°C (63°F)
Dewpoint: 9.0°C (48°F) [RH = 59%]
Pressure (altimeter): 30.21 inches Hg (1023.1 mb)
Winds: from the N (350 degrees) at 10 MPH (9 knots; 4.7 m/s)
Visibility: 10 or more miles (16+ km)
Ceiling: at least 12,000 feet AGL
Clouds: scattered clouds at 7000 feet AGL
Weather: automated observation with no human augmentation;
there may or may not be significant weather present at this time

METAR text: KAFF 220736Z AUTO 36010KT 10SM -RA BKN070 17/09 A3021 RMK AO2 RAB0736
Conditions at: KAFF (USAF ACADEMY/COS, CO, US) observed 0736 UTC 22 August 2014
Temperature: 17.0°C (63°F)
Dewpoint: 9.0°C (48°F) [RH = 59%]
Pressure (altimeter): 30.21 inches Hg (1023.1 mb)
Winds: from the N (360 degrees) at 12 MPH (10 knots; 5.2 m/s)
Visibility: 10 or more miles (16+ km)
Ceiling: 7000 feet AGL
Clouds: broken clouds at 7000 feet AGL
Weather: -RA  (light rain)

METAR text: KAFF 220658Z AUTO 34006KT 10SM SCT070 17/09 A3022 RMK AO2 SLP137 T01690093 402700114
Conditions at: KAFF (USAF ACADEMY/COS, CO, US) observed 0658 UTC 22 August 2014
Temperature: 16.9°C (62°F)
Dewpoint: 9.3°C (49°F) [RH = 61%]
Pressure (altimeter): 30.22 inches Hg (1023.5 mb[Sea-level pressure: 1013.7 mb]
Winds: from the NNW (340 degrees) at 7 MPH (6 knots; 3.1 m/s)
Visibility: 10 or more miles (16+ km)
Ceiling: at least 12,000 feet AGL
Clouds: scattered clouds at 7000 feet AGL
Weather: automated observation with no human augmentation;
there may or may not be significant weather present at this time

METAR text: KAFF 220558Z AUTO 34007KT 10SM BKN065 17/10 A3022 RMK AO2 RAB0507E0518DZB0518E0520 SLP140 P0000 60000 T01680100 10249 20158 50002
Conditions at: KAFF (USAF ACADEMY/COS, CO, US) observed 0558 UTC 22 August 2014
Temperature: 16.8°C (62°F)
Dewpoint: 10.0°C (50°F) [RH = 64%]
Pressure (altimeter): 30.22 inches Hg (1023.5 mb[Sea-level pressure: 1014.0 mb]
Winds: from the NNW (340 degrees) at 8 MPH (7 knots; 3.6 m/s)
Visibility: 10 or more miles (16+ km)
Ceiling: 6500 feet AGL
Clouds: broken clouds at 6500 feet AGL
Weather: automated observation with no human augmentation;
there may or may not be significant weather present at this time

METAR text: KAFF 220520Z AUTO 34008KT 260V350 10SM SCT090 16/10 A3022 RMK AO2 RAB0507E0518DZB0518E0520
Conditions at: KAFF (USAF ACADEMY/COS, CO, US) observed 0520 UTC 22 August 2014
Temperature: 16.0°C (61°F)
Dewpoint: 10.0°C (50°F) [RH = 68%]
Pressure (altimeter): 30.22 inches Hg (1023.5 mb)
Winds: from the NNW (340 degrees) at 9 MPH (8 knots; 4.2 m/s)
Visibility: 10 or more miles (16+ km)
Ceiling: at least 12,000 feet AGL
Clouds: scattered clouds at 9000 feet AGL
Weather: automated observation with no human augmentation;
there may or may not be significant weather present at this time

METAR text: KAFF 220507Z AUTO 36006KT 10SM -RA FEW090 16/10 A3023 RMK AO2 RAB0507
Conditions at: KAFF (USAF ACADEMY/COS, CO, US) observed 0507 UTC 22 August 2014
Temperature: 16.0°C (61°F)
Dewpoint: 10.0°C (50°F) [RH = 68%]
Pressure (altimeter): 30.23 inches Hg (1023.8 mb)
Winds: from the N (360 degrees) at 7 MPH (6 knots; 3.1 m/s)
Visibility: 10 or more miles (16+ km)
Ceiling: at least 12,000 feet AGL
Clouds: few clouds at 9000 feet AGL
Weather: -RA  (light rain)

METAR text: KAFF 220458Z AUTO 35005KT 10SM FEW090 17/10 A3023 RMK AO2 SLP143 T01650095
Conditions at: KAFF (USAF ACADEMY/COS, CO, US) observed 0458 UTC 22 August 2014
Temperature: 16.5°C (62°F)
Dewpoint: 9.5°C (49°F) [RH = 63%]
Pressure (altimeter): 30.23 inches Hg (1023.8 mb[Sea-level pressure: 1014.3 mb]
Winds: from the N (350 degrees) at 6 MPH (5 knots; 2.6 m/s)
Visibility: 10 or more miles (16+ km)
Ceiling: at least 12,000 feet AGL
Clouds: few clouds at 9000 feet AGL
Weather: automated observation with no human augmentation;
there may or may not be significant weather present at this time

METAR text: KAFF 220358Z AUTO 34007KT 10SM SCT100 18/10 A3023 RMK AO2 SLP143 T01770101
Conditions at: KAFF (USAF ACADEMY/COS, CO, US) observed 0358 UTC 22 August 2014
Temperature: 17.7°C (64°F)
Dewpoint: 10.1°C (50°F) [RH = 61%]
Pressure (altimeter): 30.23 inches Hg (1023.8 mb[Sea-level pressure: 1014.3 mb]
Winds: from the NNW (340 degrees) at 8 MPH (7 knots; 3.6 m/s)
Visibility: 10 or more miles (16+ km)
Ceiling: at least 12,000 feet AGL
Clouds: scattered clouds at 10000 feet AGL
Weather: automated observation with no human augmentation;
there may or may not be significant weather present at this time

METAR text: KAFF 220258Z AUTO 36009KT 10SM BKN130 19/10 A3022 RMK AO2 SLP143 T01870096 52019
Conditions at: KAFF (USAF ACADEMY/COS, CO, US) observed 0258 UTC 22 August 2014
Temperature: 18.7°C (66°F)
Dewpoint: 9.6°C (49°F) [RH = 55%]
Pressure (altimeter): 30.22 inches Hg (1023.5 mb[Sea-level pressure: 1014.3 mb]
Winds: from the N (360 degrees) at 10 MPH (9 knots; 4.7 m/s)
Visibility: 10 or more miles (16+ km)
Ceiling: 13000 feet AGL
Clouds: broken clouds at 13000 feet AGL
Weather: automated observation with no human augmentation;
there may or may not be significant weather present at this time

METAR text: KAFF 220158Z AUTO 32007KT 10SM FEW150 21/08 A3017 RMK AO2 SLP131 T02080077
Conditions at: KAFF (USAF ACADEMY/COS, CO, US) observed 0158 UTC 22 August 2014
Temperature: 20.8°C (69°F)
Dewpoint: 7.7°C (46°F) [RH = 43%]
Pressure (altimeter): 30.17 inches Hg (1021.8 mb[Sea-level pressure: 1013.1 mb]
Winds: from the NW (320 degrees) at 8 MPH (7 knots; 3.6 m/s)
Visibility: 10 or more miles (16+ km)
Ceiling: at least 12,000 feet AGL
Clouds: few clouds at 15000 feet AGL
Weather: automated observation with no human augmentation;
there may or may not be significant weather present at this time

METAR text: KAFF 220058Z AUTO 14008KT 10SM CLR 24/05 A3016 RMK AO2 SLP127 T02380047
Conditions at: KAFF (USAF ACADEMY/COS, CO, US) observed 0058 UTC 22 August 2014
Temperature: 23.8°C (75°F)
Dewpoint: 4.7°C (40°F) [RH = 29%]
Pressure (altimeter): 30.16 inches Hg (1021.4 mb[Sea-level pressure: 1012.7 mb]
Winds: from the SE (140 degrees) at 9 MPH (8 knots; 4.2 m/s)
Visibility: 10 or more miles (16+ km)
Ceiling: at least 12,000 feet AGL
Clouds: sky clear below 12,000 feet AGL
Weather: automated observation with no human augmentation;
there may or may not be significant weather present at this time

METAR text: KAFF 212358Z AUTO 15008KT 10SM CLR 26/04 A3015 RMK AO2 SLP123 T02560040 10270 20249 57003
Conditions at: KAFF (USAF ACADEMY/COS, CO, US) observed 2358 UTC 21 August 2014
Temperature: 25.6°C (78°F)
Dewpoint: 4.0°C (39°F) [RH = 25%]
Pressure (altimeter): 30.15 inches Hg (1021.1 mb[Sea-level pressure: 1012.3 mb]
Winds: from the SSE (150 degrees) at 9 MPH (8 knots; 4.2 m/s)
Visibility: 10 or more miles (16+ km)
Ceiling: at least 12,000 feet AGL
Clouds: sky clear below 12,000 feet AGL
Weather: automated observation with no human augmentation;
there may or may not be significant weather present at this time

METAR text: KAFF 212258Z AUTO 13007KT 10SM CLR 26/06 A3015 RMK AO2 SLP118 T02640059
Conditions at: KAFF (USAF ACADEMY/COS, CO, US) observed 2258 UTC 21 August 2014
Temperature: 26.4°C (80°F)
Dewpoint: 5.9°C (43°F) [RH = 27%]
Pressure (altimeter): 30.15 inches Hg (1021.1 mb[Sea-level pressure: 1011.8 mb]
Winds: from the SE (130 degrees) at 8 MPH (7 knots; 3.6 m/s)
Visibility: 10 or more miles (16+ km)
Ceiling: at least 12,000 feet AGL
Clouds: sky clear below 12,000 feet AGL
Weather: automated observation with no human augmentation;
there may or may not be significant weather present at this time

METAR text: KAFF 212158Z 15005KT 10SM FEW130 26/06 A3015 RMK AO2A SLP115 T02640062
Conditions at: KAFF (USAF ACADEMY/COS, CO, US) observed 2158 UTC 21 August 2014
Temperature: 26.4°C (80°F)
Dewpoint: 6.2°C (43°F) [RH = 28%]
Pressure (altimeter): 30.15 inches Hg (1021.1 mb[Sea-level pressure: 1011.5 mb]
Winds: from the SSE (150 degrees) at 6 MPH (5 knots; 2.6 m/s)
Visibility: 10 or more miles (16+ km)
Ceiling: at least 12,000 feet AGL
Clouds: few clouds at 13000 feet AGL
Weather: no significant weather observed at this time

METAR text: KAFF 212058Z 13009KT 10SM CLR 27/07 A3016 RMK AO2A SLP119 T02670073 57006
Conditions at: KAFF (USAF ACADEMY/COS, CO, US) observed 2058 UTC 21 August 2014
Temperature: 26.7°C (80°F)
Dewpoint: 7.3°C (45°F) [RH = 29%]
Pressure (altimeter): 30.16 inches Hg (1021.4 mb[Sea-level pressure: 1011.9 mb]
Winds: from the SE (130 degrees) at 10 MPH (9 knots; 4.7 m/s)
Visibility: 10 or more miles (16+ km)
Ceiling: at least 12,000 feet AGL
Clouds: sky clear below 12,000 feet AGL
Weather: no significant weather observed at this time

METAR text: KAFF 211958Z 15014G16KT 10SM FEW180 26/07 A3017 RMK AO2A SLP122 T02640071
Conditions at: KAFF (USAF ACADEMY/COS, CO, US) observed 1958 UTC 21 August 2014
Temperature: 26.4°C (80°F)
Dewpoint: 7.1°C (45°F) [RH = 29%]
Pressure (altimeter): 30.17 inches Hg (1021.8 mb[Sea-level pressure: 1012.2 mb]
Winds: from the SSE (150 degrees) at 16 MPH (14 knots; 7.3 m/sgusting to 18 MPH (16 knots; 8.3 m/s)
Visibility: 10 or more miles (16+ km)
Ceiling: at least 12,000 feet AGL
Clouds: few clouds at 18000 feet AGL
Weather: no significant weather observed at this time